createdAt,value
2022-11-19T00:00:14.147Z,99238.75
2022-11-19T00:02:42.555Z,99237.16
2022-11-19T00:05:11.109Z,99244.03
2022-11-19T00:07:39.547Z,99244.13
2022-11-19T00:10:08.725Z,99239.78
2022-11-19T00:12:50.992Z,99236.38
2022-11-19T00:15:20.698Z,99236.34
2022-11-19T00:17:49.122Z,99225.28
2022-11-19T00:20:18.183Z,99240.63
2022-11-19T00:22:46.754Z,99240.69
2022-11-19T00:25:15.121Z,99245.84
2022-11-19T00:27:43.529Z,99242.47
2022-11-19T00:30:32.529Z,99248.44
2022-11-19T00:33:03.257Z,99254.50
2022-11-19T00:35:31.679Z,99246.88
2022-11-19T00:38:00.049Z,99243.44
2022-11-19T00:40:28.522Z,99246.84
2022-11-19T00:43:14.447Z,99251.09
2022-11-19T00:45:44.514Z,99257.13
2022-11-19T00:48:14.265Z,99255.38
2022-11-19T00:50:43.804Z,99251.09
2022-11-19T00:53:12.115Z,99254.53
2022-11-19T00:55:40.580Z,99257.97
2022-11-19T00:58:08.902Z,99264.78
2022-11-19T01:00:38.140Z,99252.00
2022-11-19T01:03:07.428Z,99258.00
2022-11-19T01:05:37.147Z,99257.16
2022-11-19T01:08:05.947Z,99255.44
2022-11-19T01:10:36.096Z,99262.28
2022-11-19T01:13:22.460Z,99264.00
2022-11-19T01:15:52.024Z,99264.00
2022-11-19T01:18:20.653Z,99263.13
2022-11-19T01:20:50.515Z,99273.44
2022-11-19T01:23:18.991Z,99276.84
2022-11-19T01:25:47.395Z,99278.56
2022-11-19T01:28:15.886Z,99283.66
2022-11-19T01:30:45.095Z,99275.97
2022-11-19T01:33:14.016Z,99268.31
2022-11-19T01:35:42.671Z,99270.91
2022-11-19T01:38:12.562Z,99279.47
2022-11-19T01:40:45.333Z,99286.28
2022-11-19T01:43:15.010Z,99295.69
2022-11-19T01:45:48.237Z,99294.84
2022-11-19T01:48:22.630Z,99295.69
2022-11-19T01:50:55.981Z,99296.56
2022-11-19T01:53:31.010Z,99287.16
2022-11-19T01:56:03.984Z,99285.44
2022-11-19T01:58:36.115Z,99289.72
2022-11-19T02:01:05.383Z,99295.63
2022-11-19T02:03:34.503Z,99296.47
2022-11-19T02:06:04.768Z,99303.34
2022-11-19T02:08:41.401Z,99301.66
2022-11-19T02:11:56.505Z,99299.06
2022-11-19T02:14:41.477Z,99302.50
2022-11-19T02:17:22.182Z,99304.19
2022-11-19T02:20:34.777Z,99299.94
2022-11-19T02:24:13.332Z,99300.81
2022-11-19T02:27:34.679Z,99297.38
2022-11-19T02:30:11.189Z,99297.34
2022-11-19T02:32:51.152Z,99303.31
2022-11-19T02:35:31.772Z,99299.88
2022-11-19T02:38:06.780Z,99286.19
2022-11-19T02:40:41.997Z,99291.34
2022-11-19T02:43:17.587Z,99293.03
2022-11-19T02:45:53.061Z,99295.63
2022-11-19T02:48:26.848Z,99299.88
2022-11-19T02:50:59.267Z,99305.00
2022-11-19T02:53:27.675Z,99308.41
2022-11-19T02:56:17.179Z,99310.06
2022-11-19T02:59:10.455Z,99310.91
2022-11-19T03:02:02.661Z,99303.22
2022-11-19T03:04:32.636Z,99311.81
2022-11-19T03:07:06.541Z,99317.78
2022-11-19T03:09:40.643Z,99316.00
2022-11-19T03:12:17.224Z,99318.59
2022-11-19T03:15:11.319Z,99316.03
2022-11-19T03:17:57.397Z,99323.69
2022-11-19T03:20:33.951Z,99329.72
2022-11-19T03:23:10.346Z,99333.16
2022-11-19T03:25:44.427Z,99341.69
2022-11-19T03:28:16.726Z,99341.69
2022-11-19T03:30:48.794Z,99341.66
2022-11-19T03:33:24.949Z,99339.13
2022-11-19T03:35:57.628Z,99343.31
2022-11-19T03:38:30.963Z,99347.66
2022-11-19T03:41:00.246Z,99358.72
2022-11-19T03:43:32.444Z,99357.00
2022-11-19T03:46:02.693Z,99356.19
2022-11-19T03:48:33.235Z,99356.22
2022-11-19T03:51:06.959Z,99360.44
2022-11-19T03:53:35.353Z,99357.09
2022-11-19T03:56:06.981Z,99362.25
2022-11-19T03:58:41.297Z,99352.09
2022-11-19T04:01:10.197Z,99351.38
2022-11-19T04:03:40.041Z,99359.06
2022-11-19T04:06:08.816Z,99357.31
2022-11-19T04:08:37.178Z,99357.38
2022-11-19T04:13:32.874Z,99359.06
2022-11-19T04:16:01.389Z,99360.78
2022-11-19T04:18:29.756Z,99369.31
2022-11-19T04:20:59.451Z,99365.88
2022-11-19T04:23:27.864Z,99373.63
2022-11-19T04:25:56.187Z,99372.75
2022-11-19T04:28:25.006Z,99375.16
2022-11-19T04:30:53.443Z,99377.69
2022-11-19T04:33:23.085Z,99380.25
2022-11-19T04:35:51.502Z,99382.84
2022-11-19T04:38:21.374Z,99387.94
2022-11-19T04:40:49.703Z,99391.19
2022-11-19T04:43:18.068Z,99390.34
2022-11-19T04:45:46.452Z,99392.94
2022-11-19T04:48:14.879Z,99390.31
2022-11-19T04:50:43.724Z,99382.56
2022-11-19T04:53:12.121Z,99379.97
2022-11-19T04:55:42.693Z,99371.44
2022-11-19T04:58:11.543Z,99375.66
2022-11-19T05:00:39.917Z,99382.50
2022-11-19T05:03:08.335Z,99383.31
2022-11-19T05:05:36.778Z,99375.50
2022-11-19T05:08:05.410Z,99380.56
2022-11-19T05:10:33.908Z,99391.72
2022-11-19T05:13:03.697Z,99390.88
2022-11-19T05:15:32.064Z,99389.13
2022-11-19T05:18:00.473Z,99395.97
2022-11-19T05:20:29.122Z,99398.50
2022-11-19T05:22:57.507Z,99402.63
2022-11-19T05:25:25.957Z,99407.81
2022-11-19T05:27:54.425Z,99403.63
2022-11-19T05:30:24.265Z,99413.06
2022-11-19T05:32:52.677Z,99416.38
2022-11-19T05:35:21.197Z,99417.06
2022-11-19T05:37:50.657Z,99419.59
2022-11-19T05:40:19.793Z,99411.03
2022-11-19T05:42:48.206Z,99422.94
2022-11-19T05:45:17.164Z,99414.34
2022-11-19T05:47:48.790Z,99428.16
2022-11-19T05:50:17.718Z,99429.78
2022-11-19T05:52:46.129Z,99426.44
2022-11-19T05:55:14.634Z,99438.22
2022-11-19T05:57:43.075Z,99433.25
2022-11-19T06:00:13.635Z,99427.00
2022-11-19T06:02:42.228Z,99433.03
2022-11-19T06:05:12.860Z,99429.69
2022-11-19T06:07:41.344Z,99425.38
2022-11-19T06:10:10.933Z,99433.00
2022-11-19T06:12:44.190Z,99433.88
2022-11-19T06:15:14.735Z,99439.72
2022-11-19T06:17:43.929Z,99439.81
2022-11-19T06:20:13.832Z,99448.28
2022-11-19T06:22:42.330Z,99452.50
2022-11-19T06:25:11.040Z,99450.59
2022-11-19T06:27:39.475Z,99456.69
2022-11-19T06:30:09.527Z,99453.28
2022-11-19T06:32:38.099Z,99458.25
2022-11-19T06:35:07.589Z,99450.53
2022-11-19T06:37:37.698Z,99465.00
2022-11-19T06:40:08.175Z,99468.66
2022-11-19T06:42:39.935Z,99463.56
2022-11-19T06:45:12.703Z,99468.53
2022-11-19T06:47:42.792Z,99460.81
2022-11-19T06:50:12.225Z,99464.13
2022-11-19T06:52:42.027Z,99470.97
2022-11-19T06:55:10.916Z,99476.97
2022-11-19T06:57:39.338Z,99474.53
2022-11-19T07:00:09.306Z,99476.38
2022-11-19T07:02:37.861Z,99477.19
2022-11-19T07:05:07.286Z,99483.34
2022-11-19T07:07:36.119Z,99483.25
2022-11-19T07:10:07.290Z,99482.25
2022-11-19T07:12:35.783Z,99484.78
2022-11-19T07:15:05.354Z,99483.00
2022-11-19T07:17:34.319Z,99482.16
2022-11-19T07:20:03.193Z,99490.84
2022-11-19T07:22:31.708Z,99483.94
2022-11-19T07:25:00.170Z,99497.69
2022-11-19T07:27:29.933Z,99501.19
2022-11-19T07:29:58.321Z,99509.69
2022-11-19T07:32:27.492Z,99508.97
2022-11-19T07:34:55.929Z,99504.69
2022-11-19T07:37:24.440Z,99498.63
2022-11-19T07:39:52.883Z,99493.47
2022-11-19T07:42:39.143Z,99504.59
2022-11-19T07:45:11.863Z,99516.44
2022-11-19T07:47:40.330Z,99519.94
2022-11-19T07:50:09.840Z,99521.53
2022-11-19T07:52:38.517Z,99525.84
2022-11-19T07:55:08.168Z,99529.06
2022-11-19T07:57:36.783Z,99521.47
2022-11-19T08:00:07.273Z,99513.78
2022-11-19T08:02:42.861Z,99512.94
2022-11-19T08:05:11.601Z,99520.75
2022-11-19T08:07:40.368Z,99517.28
2022-11-19T08:10:10.735Z,99517.41
2022-11-19T08:12:39.215Z,99526.88
2022-11-19T08:15:09.733Z,99525.94
2022-11-19T08:17:55.612Z,99534.41
2022-11-19T08:20:25.567Z,99525.84
2022-11-19T08:22:53.927Z,99530.97
2022-11-19T08:25:22.366Z,99528.34
2022-11-19T08:27:50.720Z,99536.03
2022-11-19T08:30:19.417Z,99540.47
2022-11-19T08:32:47.755Z,99540.50
2022-11-19T08:35:16.548Z,99547.34
2022-11-19T08:37:47.911Z,99542.16
2022-11-19T08:40:17.270Z,99543.84
2022-11-19T08:43:02.863Z,99544.75
2022-11-19T08:45:34.611Z,99549.84
2022-11-19T08:48:06.957Z,99554.16
2022-11-19T08:50:35.500Z,99557.44
2022-11-19T08:53:07.133Z,99558.31
2022-11-19T08:55:35.605Z,99564.34
2022-11-19T08:58:06.223Z,99561.72
2022-11-19T09:00:37.598Z,99564.22
2022-11-19T09:03:06.210Z,99566.56
2022-11-19T09:05:34.629Z,99572.06
2022-11-19T09:08:04.361Z,99572.72
2022-11-19T09:10:32.775Z,99579.56
2022-11-19T09:13:03.320Z,99566.72
2022-11-19T09:15:31.962Z,99572.66
2022-11-19T09:18:00.492Z,99574.34
2022-11-19T09:20:28.905Z,99579.34
2022-11-19T09:22:57.293Z,99572.50
2022-11-19T09:25:27.111Z,99579.28
2022-11-19T09:27:55.489Z,99592.06
2022-11-19T09:30:23.812Z,99597.31
2022-11-19T09:32:52.248Z,99597.22
2022-11-19T09:35:20.674Z,99601.69
2022-11-19T09:37:49.074Z,99591.53
2022-11-19T09:40:20.975Z,99604.31
2022-11-19T09:43:12.556Z,99605.94
2022-11-19T09:45:55.465Z,99602.50
2022-11-19T09:48:34.087Z,99612.13
2022-11-19T09:51:05.745Z,99608.75
2022-11-19T09:53:41.751Z,99603.44
2022-11-19T09:56:18.071Z,99602.59
2022-11-19T09:58:47.833Z,99595.63
2022-11-19T10:01:19.094Z,99605.22
2022-11-19T10:03:50.931Z,99608.66
2022-11-19T10:06:30.384Z,99607.16
2022-11-19T10:09:43.202Z,99615.81
2022-11-19T10:12:32.535Z,99607.28
2022-11-19T10:15:17.792Z,99603.78
2022-11-19T10:17:59.675Z,99606.44
2022-11-19T10:20:53.142Z,99609.75
2022-11-19T10:23:28.798Z,99598.66
2022-11-19T10:26:04.528Z,99602.81
2022-11-19T10:28:37.998Z,99616.66
2022-11-19T10:31:15.808Z,99613.16
2022-11-19T10:33:52.807Z,99606.97
2022-11-19T10:36:27.509Z,99613.78
2022-11-19T10:39:08.965Z,99612.97
2022-11-19T10:41:48.838Z,99611.19
2022-11-19T10:44:40.588Z,99622.28
2022-11-19T10:47:17.878Z,99594.75
2022-11-19T10:49:46.584Z,99613.91
2022-11-19T10:52:25.116Z,99613.16
2022-11-19T10:54:57.834Z,99612.19
2022-11-19T10:57:27.180Z,99624.22
2022-11-19T10:59:56.394Z,99617.47
2022-11-19T11:02:33.120Z,99614.78
2022-11-19T11:05:10.867Z,99616.69
2022-11-19T11:07:52.885Z,99614.13
2022-11-19T11:10:44.235Z,99599.56
2022-11-19T11:13:49.697Z,99605.56
2022-11-19T11:16:21.622Z,99609.03
2022-11-19T11:18:54.196Z,99609.91
2022-11-19T11:21:33.558Z,99610.81
2022-11-19T11:24:04.670Z,99611.78
2022-11-19T11:26:37.701Z,99607.34
2022-11-19T11:29:13.592Z,99614.19
2022-11-19T11:31:44.128Z,99612.47
2022-11-19T11:34:31.823Z,99618.56
2022-11-19T11:37:02.457Z,99614.47
2022-11-19T11:39:36.054Z,99614.53
2022-11-19T11:42:06.757Z,99610.00
2022-11-19T11:44:39.031Z,99619.41
2022-11-19T11:47:14.723Z,99611.59
2022-11-19T11:49:47.222Z,99611.69
2022-11-19T11:52:20.923Z,99609.31
2022-11-19T11:54:58.948Z,99611.81
2022-11-19T11:57:29.725Z,99614.34
2022-11-19T11:59:59.151Z,99600.84
2022-11-19T12:02:33.925Z,99611.88
2022-11-19T12:05:08.115Z,99614.53
2022-11-19T12:08:03.737Z,99604.34
2022-11-19T12:10:44.374Z,99605.97
2022-11-19T12:13:54.374Z,99606.81
2022-11-19T12:16:40.867Z,99600.91
2022-11-19T12:19:26.270Z,99600.78
2022-11-19T12:22:06.376Z,99598.25
2022-11-19T12:25:03.823Z,99603.44
2022-11-19T12:27:42.275Z,99592.31
2022-11-19T12:30:22.655Z,99589.69
2022-11-19T12:33:12.785Z,99582.94
2022-11-19T12:35:56.178Z,99586.44
2022-11-19T12:38:42.519Z,99597.63
2022-11-19T12:41:34.456Z,99603.66
2022-11-19T12:44:08.141Z,99606.13
2022-11-19T12:46:51.929Z,99607.03
2022-11-19T12:49:48.832Z,99598.59
2022-11-19T12:53:16.759Z,99609.84
2022-11-19T12:55:57.407Z,99614.88
2022-11-19T12:58:38.869Z,99616.53
2022-11-19T13:01:14.297Z,99614.94
2022-11-19T13:03:54.988Z,99620.84
2022-11-19T13:06:29.949Z,99617.22
2022-11-19T13:09:03.368Z,99626.75
2022-11-19T13:11:39.566Z,99614.78
2022-11-19T13:14:17.581Z,99622.50
2022-11-19T13:16:46.774Z,99619.06
2022-11-19T13:19:24.467Z,99619.00
2022-11-19T13:21:58.405Z,99617.38
2022-11-19T13:24:33.674Z,99612.22
2022-11-19T13:27:06.564Z,99604.53
2022-11-19T13:29:42.878Z,99606.22
2022-11-19T13:32:20.215Z,99609.66
2022-11-19T13:35:02.891Z,99606.88
2022-11-19T13:37:58.051Z,99600.13
2022-11-19T13:40:32.644Z,99599.31
2022-11-19T13:43:35.961Z,99600.28
2022-11-19T13:46:20.446Z,99605.63
2022-11-19T13:48:56.545Z,99597.06
2022-11-19T13:51:32.738Z,99603.72
2022-11-19T13:54:04.098Z,99605.94
2022-11-19T13:56:46.173Z,99610.97
2022-11-19T13:59:33.730Z,99607.44
2022-11-19T14:03:03.810Z,99619.34
2022-11-19T14:06:08.936Z,99628.72
2022-11-19T14:08:59.231Z,99628.78
2022-11-19T14:12:04.808Z,99621.59
2022-11-19T14:15:15.915Z,99623.97
2022-11-19T14:18:09.636Z,99622.34
2022-11-19T14:20:59.215Z,99621.56
2022-11-19T14:24:04.345Z,99623.97
2022-11-19T14:27:02.849Z,99620.56
2022-11-19T14:30:02.049Z,99634.28
2022-11-19T14:32:47.032Z,99636.78
2022-11-19T14:35:43.108Z,99635.19
2022-11-19T14:38:40.472Z,99635.00
2022-11-19T14:41:26.174Z,99633.47
2022-11-19T14:44:35.941Z,99633.34
2022-11-19T14:47:34.509Z,99645.44
2022-11-19T14:50:06.731Z,99643.69
2022-11-19T14:52:39.867Z,99643.75
2022-11-19T14:55:22.790Z,99642.78
2022-11-19T14:57:59.894Z,99638.44
2022-11-19T15:00:32.745Z,99641.03
2022-11-19T15:03:04.278Z,99636.84
2022-11-19T15:05:34.927Z,99636.88
2022-11-19T15:08:31.089Z,99644.56
2022-11-19T15:11:09.124Z,99642.00
2022-11-19T15:13:39.296Z,99639.44
2022-11-19T15:16:12.982Z,99634.38
2022-11-19T15:19:17.588Z,99639.56
2022-11-19T15:22:13.267Z,99636.00
2022-11-19T15:25:15.236Z,99638.50
2022-11-19T15:27:58.496Z,99644.53
2022-11-19T15:30:42.115Z,99637.63
2022-11-19T15:33:47.168Z,99651.25
2022-11-19T15:36:31.926Z,99646.91
2022-11-19T15:39:10.738Z,99641.97
2022-11-19T15:42:00.231Z,99647.19
2022-11-19T15:44:36.447Z,99654.03
2022-11-19T15:47:09.366Z,99658.38
2022-11-19T15:49:38.676Z,99659.13
2022-11-19T15:52:20.111Z,99652.19
2022-11-19T15:54:48.680Z,99657.34
2022-11-19T15:57:24.520Z,99654.00
2022-11-19T15:59:58.977Z,99657.50
2022-11-19T16:02:38.755Z,99660.78
2022-11-19T16:05:08.882Z,99650.50
2022-11-19T16:07:38.785Z,99663.34
2022-11-19T16:10:13.772Z,99665.00
2022-11-19T16:13:12.805Z,99669.28
2022-11-19T16:16:03.853Z,99662.34
2022-11-19T16:18:32.470Z,99670.22
2022-11-19T16:21:01.387Z,99672.81
2022-11-19T16:23:52.143Z,99676.28
2022-11-19T16:26:20.589Z,99685.72
2022-11-19T16:28:49.052Z,99685.78
2022-11-19T16:31:17.589Z,99677.94
2022-11-19T16:33:46.139Z,99676.84
2022-11-19T16:36:17.069Z,99673.25
2022-11-19T16:38:49.692Z,99672.53
2022-11-19T16:41:37.698Z,99675.22
2022-11-19T16:44:10.877Z,99675.03
2022-11-19T16:46:39.876Z,99676.84
2022-11-19T16:49:17.005Z,99670.75
2022-11-19T16:51:54.194Z,99679.34
2022-11-19T16:54:48.368Z,99677.47
2022-11-19T16:57:19.517Z,99672.97
2022-11-19T16:59:51.848Z,99665.31
2022-11-19T17:02:23.701Z,99660.25
2022-11-19T17:04:54.745Z,99661.25
2022-11-19T17:07:26.402Z,99663.91
2022-11-19T17:10:22.946Z,99681.78
2022-11-19T17:12:55.373Z,99683.50
2022-11-19T17:15:40.071Z,99686.88
2022-11-19T17:18:20.229Z,99689.47
2022-11-19T17:20:53.569Z,99679.03
2022-11-19T17:23:24.650Z,99678.97
2022-11-19T17:25:58.418Z,99683.22
2022-11-19T17:28:36.551Z,99683.91
2022-11-19T17:31:14.996Z,99691.44
2022-11-19T17:33:52.890Z,99691.59
2022-11-19T17:36:22.232Z,99689.63
2022-11-19T17:38:50.853Z,99688.09
2022-11-19T17:41:37.225Z,99682.94
2022-11-19T17:44:26.076Z,99687.28
2022-11-19T17:46:54.551Z,99687.19
2022-11-19T17:49:22.929Z,99696.72
2022-11-19T17:51:51.387Z,99689.88
2022-11-19T17:54:20.323Z,99683.75
2022-11-19T17:56:50.287Z,99703.41
2022-11-19T17:59:18.731Z,99712.03
2022-11-19T18:01:47.247Z,99713.91
2022-11-19T18:04:15.709Z,99710.28
2022-11-19T18:06:44.500Z,99719.66
2022-11-19T18:09:12.905Z,99714.50
2022-11-19T18:11:41.543Z,99712.94
2022-11-19T18:14:12.628Z,99720.66
2022-11-19T18:16:43.571Z,99719.63
2022-11-19T18:19:14.153Z,99712.72
2022-11-19T18:21:43.564Z,99713.59
2022-11-19T18:24:13.487Z,99706.78
2022-11-19T18:26:41.951Z,99713.59
2022-11-19T18:29:12.297Z,99710.31
2022-11-19T18:31:44.880Z,99715.28
2022-11-19T18:34:18.796Z,99725.47
2022-11-19T18:36:47.573Z,99727.97
2022-11-19T18:39:16.302Z,99728.28
2022-11-19T18:41:44.752Z,99729.81
2022-11-19T18:44:35.423Z,99723.94
2022-11-19T18:47:06.381Z,99730.66
2022-11-19T18:49:35.533Z,99739.16
2022-11-19T18:52:05.231Z,99733.28
2022-11-19T18:54:34.038Z,99731.53
2022-11-19T18:57:02.891Z,99733.31
2022-11-19T18:59:32.822Z,99731.44
2022-11-19T19:02:01.444Z,99722.06
2022-11-19T19:04:30.038Z,99734.09
2022-11-19T19:06:59.351Z,99723.88
2022-11-19T19:09:28.234Z,99733.19
2022-11-19T19:12:14.401Z,99749.44
2022-11-19T19:14:45.595Z,99749.44
2022-11-19T19:17:15.421Z,99742.38
2022-11-19T19:19:43.791Z,99738.13
2022-11-19T19:22:12.177Z,99745.00
2022-11-19T19:24:41.234Z,99743.34
2022-11-19T19:27:11.123Z,99749.44
2022-11-19T19:29:40.182Z,99750.28
2022-11-19T19:32:10.379Z,99747.50
2022-11-19T19:34:38.940Z,99739.69
2022-11-19T19:37:07.460Z,99749.06
2022-11-19T19:39:35.904Z,99745.66
2022-11-19T19:42:04.371Z,99752.41
2022-11-19T19:44:33.046Z,99742.28
2022-11-19T19:47:02.332Z,99745.69
2022-11-19T19:49:37.356Z,99753.22
2022-11-19T19:52:07.351Z,99770.53
2022-11-19T19:54:35.727Z,99767.88
2022-11-19T19:57:04.304Z,99772.22
2022-11-19T19:59:32.967Z,99770.63
2022-11-19T20:02:01.417Z,99773.94
2022-11-19T20:04:33.201Z,99780.63
2022-11-19T20:07:01.767Z,99768.63
2022-11-19T20:09:30.216Z,99767.72
2022-11-19T20:11:59.701Z,99759.78
2022-11-19T20:14:28.357Z,99753.88
2022-11-19T20:16:56.937Z,99746.06
2022-11-19T20:19:26.202Z,99741.59
2022-11-19T20:21:56.458Z,99744.25
2022-11-19T20:24:25.186Z,99759.00
2022-11-19T20:26:53.683Z,99765.16
2022-11-19T20:29:23.786Z,99760.19
2022-11-19T20:31:52.978Z,99775.50
2022-11-19T20:34:23.456Z,99765.97
2022-11-19T20:36:52.087Z,99752.28
2022-11-19T20:39:22.093Z,99745.31
2022-11-19T20:42:08.077Z,99750.97
2022-11-19T20:44:44.095Z,99755.63
2022-11-19T20:47:12.784Z,99763.47
2022-11-19T20:49:41.666Z,99759.41
2022-11-19T20:52:11.368Z,99763.59
2022-11-19T20:54:41.918Z,99759.00
2022-11-19T20:57:10.279Z,99769.31
2022-11-19T20:59:38.716Z,99756.50
2022-11-19T21:02:07.611Z,99766.06
2022-11-19T21:04:37.297Z,99761.94
2022-11-19T21:07:06.778Z,99764.75
2022-11-19T21:09:35.726Z,99765.50
2022-11-19T21:12:06.241Z,99770.69
2022-11-19T21:14:34.700Z,99776.69
2022-11-19T21:17:03.171Z,99771.53
2022-11-19T21:19:31.602Z,99786.94
2022-11-19T21:22:00.085Z,99777.66
2022-11-19T21:24:28.455Z,99772.31
2022-11-19T21:26:57.061Z,99772.13
2022-11-19T21:29:38.140Z,99769.56
2022-11-19T21:32:07.824Z,99768.81
2022-11-19T21:34:36.224Z,99767.13
2022-11-19T21:37:04.895Z,99765.50
2022-11-19T21:39:33.560Z,99774.09
2022-11-19T21:42:02.057Z,99762.13
2022-11-19T21:44:32.068Z,99765.22
2022-11-19T21:47:00.436Z,99754.84
2022-11-19T21:49:28.925Z,99756.59
2022-11-19T21:51:57.369Z,99760.16
2022-11-19T21:54:25.874Z,99755.09
2022-11-19T21:56:54.369Z,99756.50
2022-11-19T21:59:23.137Z,99748.75
2022-11-19T22:01:54.896Z,99751.31
2022-11-19T22:04:23.590Z,99749.66
2022-11-19T22:06:52.103Z,99748.16
2022-11-19T22:09:20.600Z,99747.91
2022-11-19T22:11:49.136Z,99740.28
2022-11-19T22:14:19.094Z,99748.06
2022-11-19T22:16:47.524Z,99754.78
2022-11-19T22:19:20.694Z,99753.13
2022-11-19T22:21:49.329Z,99757.59
2022-11-19T22:24:18.190Z,99754.38
2022-11-19T22:26:46.551Z,99753.38
2022-11-19T22:29:14.919Z,99757.53
2022-11-19T22:31:43.317Z,99764.28
2022-11-19T22:34:13.249Z,99758.09
2022-11-19T22:36:43.124Z,99751.38
2022-11-19T22:39:12.816Z,99751.91
2022-11-19T22:41:41.534Z,99735.38
2022-11-19T22:44:10.048Z,99752.56
2022-11-19T22:46:38.452Z,99744.22
2022-11-19T22:49:07.093Z,99743.41
2022-11-19T22:51:35.455Z,99742.72
2022-11-19T22:54:05.495Z,99731.72
2022-11-19T22:56:33.955Z,99745.22
2022-11-19T22:59:02.501Z,99727.56
2022-11-19T23:01:35.291Z,99741.94
2022-11-19T23:04:06.964Z,99736.94
2022-11-19T23:06:36.592Z,99724.13
2022-11-19T23:09:08.383Z,99722.22
2022-11-19T23:11:54.693Z,99732.47
2022-11-19T23:14:23.202Z,99723.28
2022-11-19T23:16:51.727Z,99720.78
2022-11-19T23:19:20.580Z,99719.94
2022-11-19T23:21:49.556Z,99727.03
2022-11-19T23:24:19.613Z,99728.75
2022-11-19T23:26:48.123Z,99729.59
2022-11-19T23:29:16.468Z,99727.88
2022-11-19T23:31:44.850Z,99723.53
2022-11-19T23:34:13.266Z,99723.56
2022-11-19T23:36:42.908Z,99723.44
2022-11-19T23:39:17.646Z,99714.81
2022-11-19T23:41:47.703Z,99718.97
2022-11-19T23:44:16.142Z,99707.00
2022-11-19T23:46:44.546Z,99715.56
2022-11-19T23:49:13.196Z,99717.50
2022-11-19T23:51:44.731Z,99721.00
2022-11-19T23:54:14.364Z,99709.13
2022-11-19T23:56:42.862Z,99707.31
2022-11-19T23:59:12.712Z,99705.47
